Time;durP1;ratioP1;P1;durP2;ratioP2;P2;SDS_P1;SDS_P2;PMS_P1;PMS_P2;Temp;Humidity;BMP_temperature;BMP_pressure;BME280_temperature;BME280_humidity;BME280_pressure;Samples;Min_cycle;Max_cycle;Signal;HPM_P1;HPM_P2
2022/03/29 00:02:14;;;;;;;34.73;23.83;;;9.50;82.70;;;;;;5054155;28;20025;-76
2022/03/29 00:04:40;;;;;;;34.53;22.83;;;9.40;83.00;;;;;;5037589;28;20033;-76
2022/03/29 00:07:05;;;;;;;32.27;22.63;;;9.40;83.70;;;;;;5055446;28;20021;-76
2022/03/29 00:09:31;;;;;;;34.17;23.00;;;9.30;83.30;;;;;;5055085;28;20033;-76
2022/03/29 00:11:57;;;;;;;34.00;22.20;;;9.30;83.30;;;;;;5053884;28;20032;-76
2022/03/29 00:14:22;;;;;;;33.63;23.73;;;9.30;83.70;;;;;;5055217;28;20033;-76
2022/03/29 00:16:48;;;;;;;35.97;23.67;;;9.30;83.70;;;;;;5054507;28;20056;-76
2022/03/29 00:19:13;;;;;;;34.47;23.67;;;9.30;83.90;;;;;;5055035;28;20078;-76
2022/03/29 00:21:39;;;;;;;35.33;25.57;;;9.20;84.20;;;;;;5037208;28;20119;-76
2022/03/29 00:24:05;;;;;;;32.87;22.40;;;9.20;84.50;;;;;;5055091;28;20162;-76
2022/03/29 00:26:31;;;;;;;34.30;24.40;;;9.10;84.80;;;;;;5054614;28;20047;-76
2022/03/29 00:28:57;;;;;;;36.87;24.43;;;9.10;85.20;;;;;;5037036;28;20055;-76
2022/03/29 00:31:22;;;;;;;35.83;24.73;;;9.10;85.50;;;;;;5054596;28;20088;-76
2022/03/29 00:33:49;;;;;;;37.23;24.67;;;9.00;85.70;;;;;;5054597;28;20029;-76
2022/03/29 00:36:16;;;;;;;35.33;24.57;;;8.90;85.90;;;;;;5036684;28;20029;-76
2022/03/29 00:38:43;;;;;;;37.67;25.10;;;8.80;85.80;;;;;;5054437;28;20130;-76
2022/03/29 00:41:09;;;;;;;37.97;24.13;;;8.90;85.90;;;;;;5054466;28;20488;-76
2022/03/29 00:43:35;;;;;;;39.13;26.70;;;8.70;86.60;;;;;;5054827;28;20029;-76
2022/03/29 00:46:01;;;;;;;39.77;25.00;;;8.70;86.40;;;;;;5071496;28;20049;-76
2022/03/29 00:48:27;;;;;;;36.40;23.43;;;8.70;86.50;;;;;;5074235;28;20028;-75
2022/03/29 00:50:54;;;;;;;37.10;24.90;;;8.70;86.60;;;;;;5056401;28;20104;-76
2022/03/29 00:53:22;;;;;;;37.13;24.40;;;8.70;86.60;;;;;;5074326;28;20476;-76
2022/03/29 00:55:48;;;;;;;39.23;24.70;;;8.70;86.80;;;;;;5056331;28;20078;-76
2022/03/29 00:58:15;;;;;;;36.40;24.43;;;8.80;87.00;;;;;;5074121;28;20074;-76
2022/03/29 01:00:42;;;;;;;35.30;25.37;;;8.70;87.00;;;;;;5039517;28;20020;-76
2022/03/29 01:03:08;;;;;;;40.77;26.20;;;8.80;88.20;;;;;;5074243;28;20024;-76
2022/03/29 01:05:33;;;;;;;41.97;27.87;;;8.70;87.70;;;;;;5056061;28;20024;-76
2022/03/29 01:08:00;;;;;;;39.47;26.57;;;8.70;88.30;;;;;;5073876;28;20111;-76
2022/03/29 01:10:27;;;;;;;37.60;25.43;;;8.80;88.00;;;;;;5074085;28;20113;-76
2022/03/29 01:12:54;;;;;;;42.00;27.40;;;8.80;88.30;;;;;;5056095;28;20051;-76
2022/03/29 01:15:22;;;;;;;38.57;26.43;;;8.70;88.90;;;;;;5039452;28;20132;-77
2022/03/29 01:17:49;;;;;;;38.97;25.47;;;8.80;88.70;;;;;;5056260;28;20039;-77
2022/03/29 01:20:25;;;;;;;43.37;26.70;;;8.80;89.20;;;;;;5073764;28;20035;-76
2022/03/29 01:22:52;;;;;;;40.27;27.40;;;8.80;89.20;;;;;;5073669;28;20012;-76
2022/03/29 01:25:24;;;;;;;38.27;25.50;;;8.80;89.20;;;;;;5055661;28;20023;-77
2022/03/29 01:27:52;;;;;;;39.77;26.90;;;8.80;89.20;;;;;;5072845;28;20028;-77
2022/03/29 01:30:20;;;;;;;39.60;26.13;;;8.80;89.40;;;;;;5073891;28;20028;-77
2022/03/29 01:32:48;;;;;;;40.50;26.20;;;8.80;89.80;;;;;;5055415;28;20025;-76
2022/03/29 01:35:16;;;;;;;39.87;27.30;;;8.90;89.90;;;;;;5073725;28;20051;-77
2022/03/29 01:37:42;;;;;;;39.10;26.93;;;8.90;89.80;;;;;;5055358;28;20078;-77
2022/03/29 01:40:10;;;;;;;41.23;28.23;;;8.90;90.30;;;;;;5038792;28;20443;-76
2022/03/29 01:42:36;;;;;;;43.90;28.53;;;8.90;90.30;;;;;;5073153;28;20021;-76
2022/03/29 01:45:02;;;;;;;44.47;28.80;;;8.90;90.40;;;;;;5038681;28;20125;-76
2022/03/29 01:47:28;;;;;;;40.33;28.00;;;8.90;90.40;;;;;;5038827;28;20024;-76
2022/03/29 01:49:54;;;;;;;41.70;28.13;;;8.90;90.50;;;;;;5055153;28;20029;-76
2022/03/29 01:52:20;;;;;;;39.50;27.20;;;8.90;90.60;;;;;;5073377;28;20060;-76
2022/03/29 01:54:46;;;;;;;40.37;27.07;;;8.90;90.80;;;;;;5055289;28;20080;-76
2022/03/29 01:57:12;;;;;;;45.20;28.83;;;8.90;90.60;;;;;;5055062;28;20028;-76
2022/03/29 02:02:23;;;;;;;45.03;28.60;;;8.90;90.60;;;;;;5073959;28;20385;-77
2022/03/29 02:04:48;;;;;;;44.63;29.27;;;8.80;90.90;;;;;;5073246;28;20031;-76
2022/03/29 02:07:14;;;;;;;39.30;26.80;;;8.90;90.60;;;;;;5073155;28;20466;-76
2022/03/29 02:09:40;;;;;;;36.93;25.53;;;8.80;90.50;;;;;;5073554;28;20361;-76
2022/03/29 02:12:07;;;;;;;42.97;27.77;;;8.80;90.60;;;;;;5072997;28;20023;-77
2022/03/29 02:14:34;;;;;;;44.07;28.07;;;8.80;90.90;;;;;;5055369;28;20481;-76
2022/03/29 02:17:00;;;;;;;42.60;28.23;;;8.80;91.20;;;;;;5055622;28;20031;-76
2022/03/29 02:19:26;;;;;;;41.43;27.57;;;8.80;91.40;;;;;;5038486;28;20040;-76
2022/03/29 02:21:52;;;;;;;43.77;28.47;;;8.70;91.10;;;;;;5055461;28;20103;-77
2022/03/29 02:24:18;;;;;;;46.03;29.73;;;8.70;91.60;;;;;;5055118;28;20108;-77
2022/03/29 02:26:43;;;;;;;44.30;27.43;;;8.70;91.40;;;;;;5055344;28;20029;-77
2022/03/29 02:29:10;;;;;;;39.97;26.67;;;8.70;91.20;;;;;;5055157;28;20032;-77
2022/03/29 02:31:36;;;;;;;43.03;28.77;;;8.70;91.40;;;;;;5038564;28;20028;-76
2022/03/29 02:34:02;;;;;;;44.33;28.43;;;8.70;91.40;;;;;;5072858;28;20039;-77
2022/03/29 02:36:28;;;;;;;46.07;29.83;;;8.70;91.30;;;;;;5072781;28;20035;-76
2022/03/29 02:38:54;;;;;;;42.40;28.97;;;8.70;91.70;;;;;;5073573;28;20028;-77
2022/03/29 02:41:20;;;;;;;45.27;29.03;;;8.70;91.80;;;;;;5059029;28;20115;-77
2022/03/29 02:43:45;;;;;;;45.17;30.33;;;8.70;91.70;;;;;;5059020;28;20032;-77
2022/03/29 02:46:11;;;;;;;41.73;27.80;;;8.60;91.70;;;;;;5076199;28;20047;-76
2022/03/29 02:48:37;;;;;;;45.67;28.70;;;8.70;91.50;;;;;;5058970;28;20481;-76
2022/03/29 02:51:02;;;;;;;42.47;28.77;;;8.60;91.70;;;;;;5076327;28;20032;-76
2022/03/29 02:53:28;;;;;;;41.00;27.03;;;8.60;91.70;;;;;;5076609;28;20081;-77
2022/03/29 02:55:54;;;;;;;40.67;27.87;;;8.60;91.60;;;;;;5058490;28;20016;-76
2022/03/29 02:58:19;;;;;;;40.27;25.63;;;8.60;91.70;;;;;;5058353;28;20039;-77
2022/03/29 03:00:45;;;;;;;40.10;26.40;;;8.60;91.70;;;;;;5076068;28;20021;-77
2022/03/29 03:03:11;;;;;;;40.00;27.83;;;8.60;91.70;;;;;;5058199;28;20027;-77
2022/03/29 03:05:36;;;;;;;40.67;26.00;;;8.60;91.70;;;;;;5076777;28;20039;-77
2022/03/29 03:08:02;;;;;;;40.00;27.57;;;8.70;91.70;;;;;;5075999;28;20052;-77
2022/03/29 03:10:28;;;;;;;38.43;26.20;;;8.60;91.80;;;;;;5058331;28;20032;-77
2022/03/29 03:12:54;;;;;;;42.67;26.87;;;8.50;92.00;;;;;;5041600;28;20028;-77
2022/03/29 03:15:24;;;;;;;41.07;27.50;;;8.60;92.10;;;;;;5075876;28;20043;-77
2022/03/29 03:17:54;;;;;;;37.30;26.00;;;8.50;92.00;;;;;;5057691;28;20534;-76
2022/03/29 03:20:22;;;;;;;41.07;25.33;;;8.50;92.00;;;;;;5057851;28;20086;-76
2022/03/29 03:22:49;;;;;;;38.60;24.77;;;8.60;92.10;;;;;;5075725;28;20039;-76
2022/03/29 03:25:14;;;;;;;36.87;24.47;;;8.50;92.30;;;;;;5057698;28;20477;-77
2022/03/29 03:27:40;;;;;;;37.30;25.60;;;8.50;92.30;;;;;;5058205;28;20112;-77
2022/03/29 03:30:09;;;;;;;40.60;25.80;;;8.50;92.30;;;;;;5058550;28;20056;-77
2022/03/29 03:32:35;;;;;;;38.60;23.83;;;8.60;92.30;;;;;;5058236;28;20099;-77
2022/03/29 03:35:01;;;;;;;36.77;24.30;;;8.60;92.30;;;;;;5076032;28;20028;-77
2022/03/29 03:37:26;;;;;;;40.13;25.00;;;8.60;92.20;;;;;;5075667;28;20032;-76
2022/03/29 03:39:52;;;;;;;37.33;24.97;;;8.50;92.40;;;;;;5058176;28;20028;-77
2022/03/29 03:42:18;;;;;;;38.97;25.20;;;8.60;92.30;;;;;;5057653;28;20025;-77
2022/03/29 03:44:43;;;;;;;36.47;25.00;;;8.50;92.30;;;;;;5075150;28;20040;-77
2022/03/29 03:47:10;;;;;;;41.10;25.17;;;8.50;92.50;;;;;;5075696;28;20364;-76
2022/03/29 03:49:36;;;;;;;40.40;26.03;;;8.50;92.50;;;;;;5075210;28;20024;-77
2022/03/29 03:52:03;;;;;;;36.43;23.60;;;8.50;92.40;;;;;;5074470;28;20056;-77
2022/03/29 03:54:29;;;;;;;37.43;24.93;;;8.50;92.40;;;;;;5057379;28;20063;-76
2022/03/29 03:56:54;;;;;;;38.00;25.53;;;8.50;92.60;;;;;;5057462;28;20438;-76
2022/03/29 03:59:21;;;;;;;36.03;23.90;;;8.50;92.50;;;;;;5040943;28;20032;-76
2022/03/29 04:01:47;;;;;;;38.60;24.67;;;8.50;92.70;;;;;;5057180;28;20055;-77
2022/03/29 04:04:12;;;;;;;38.53;24.73;;;8.50;92.90;;;;;;5057175;28;20040;-77
2022/03/29 04:06:38;;;;;;;42.30;25.50;;;8.50;93.10;;;;;;5057495;28;20103;-76
2022/03/29 04:09:04;;;;;;;39.90;26.47;;;8.40;93.40;;;;;;5057695;28;20560;-76
2022/03/29 04:11:30;;;;;;;39.40;25.23;;;8.40;93.00;;;;;;5074886;28;20107;-76
2022/03/29 04:13:58;;;;;;;36.77;24.00;;;8.30;92.90;;;;;;5040600;28;20048;-77
2022/03/29 04:16:25;;;;;;;38.63;23.43;;;8.40;92.90;;;;;;5056841;28;20427;-76
2022/03/29 04:18:51;;;;;;;34.23;22.10;;;8.30;93.00;;;;;;5074648;28;20056;-76
2022/03/29 04:21:16;;;;;;;35.30;22.20;;;8.40;93.10;;;;;;5056393;28;20047;-77
2022/03/29 04:23:42;;;;;;;34.50;21.63;;;8.30;93.00;;;;;;5057091;28;20038;-77
2022/03/29 04:26:08;;;;;;;38.13;23.20;;;8.30;93.10;;;;;;5056835;28;20418;-77
2022/03/29 04:28:33;;;;;;;33.63;21.83;;;8.30;93.40;;;;;;5040324;28;20483;-77
2022/03/29 04:30:59;;;;;;;43.47;26.33;;;8.30;93.30;;;;;;5050786;28;20433;-77
2022/03/29 04:33:26;;;;;;;40.57;25.20;;;8.30;93.70;;;;;;5076562;28;20043;-77
2022/03/29 04:35:52;;;;;;;38.40;24.63;;;8.40;93.60;;;;;;5060063;28;20054;-77
2022/03/29 04:38:17;;;;;;;37.40;22.30;;;8.40;93.40;;;;;;5076942;28;20488;-76
2022/03/29 04:40:43;;;;;;;37.43;23.80;;;8.30;93.40;;;;;;5059748;28;20390;-77
2022/03/29 04:43:09;;;;;;;34.47;23.40;;;8.30;93.70;;;;;;5059694;28;20024;-76
2022/03/29 04:45:34;;;;;;;41.20;24.47;;;8.30;93.70;;;;;;5086388;28;20048;-78
2022/03/29 04:48:01;;;;;;;40.37;22.80;;;8.20;93.60;;;;;;5039297;28;20064;-76
2022/03/29 04:50:27;;;;;;;39.27;24.57;;;8.30;93.60;;;;;;5071819;28;20035;-75
2022/03/29 04:52:52;;;;;;;41.50;24.97;;;8.20;93.80;;;;;;5075986;28;20035;-76
2022/03/29 04:55:19;;;;;;;41.80;25.07;;;8.20;93.70;;;;;;5059350;28;20419;-76
2022/03/29 04:57:47;;;;;;;40.97;24.67;;;8.20;93.70;;;;;;5094085;28;20081;-76
2022/03/29 05:00:14;;;;;;;38.20;23.90;;;8.20;94.00;;;;;;5063225;28;20127;-76
2022/03/29 05:02:43;;;;;;;38.43;23.40;;;8.20;93.90;;;;;;5059888;28;20460;-76
2022/03/29 05:05:13;;;;;;;39.97;23.23;;;8.20;93.80;;;;;;5080975;28;20048;-75
2022/03/29 05:07:40;;;;;;;38.63;24.17;;;8.20;94.00;;;;;;5087502;28;20361;-79
2022/03/29 05:10:08;;;;;;;40.47;23.70;;;8.20;93.80;;;;;;5074253;28;20044;-78
2022/03/29 05:12:47;;;;;;;37.03;22.33;;;8.20;93.90;;;;;;5075953;28;20032;-79
2022/03/29 05:15:16;;;;;;;37.77;23.30;;;8.20;94.00;;;;;;5059541;28;20025;-79
2022/03/29 05:17:42;;;;;;;40.60;23.67;;;8.20;93.90;;;;;;5063391;28;20438;-79
2022/03/29 05:20:10;;;;;;;39.17;23.97;;;8.30;94.00;;;;;;5079354;28;20029;-79
2022/03/29 05:22:42;;;;;;;40.97;25.07;;;8.30;94.10;;;;;;5098869;28;20035;-79
2022/03/29 05:25:08;;;;;;;39.57;24.33;;;8.30;94.10;;;;;;5092055;28;20035;-79
2022/03/29 05:27:33;;;;;;;39.70;23.70;;;8.30;94.00;;;;;;5058326;28;20070;-79
2022/03/29 05:29:59;;;;;;;38.83;23.93;;;8.40;94.20;;;;;;5075759;28;20393;-79
2022/03/29 05:32:25;;;;;;;43.10;25.47;;;8.40;94.60;;;;;;5058291;28;20118;-79
2022/03/29 05:34:50;;;;;;;40.50;25.03;;;8.30;94.50;;;;;;5061227;28;20464;-79
2022/03/29 05:37:16;;;;;;;38.87;24.70;;;8.30;94.80;;;;;;5057825;28;20089;-79
2022/03/29 05:39:43;;;;;;;40.93;24.63;;;8.30;94.80;;;;;;5055347;28;20489;-78
2022/03/29 05:42:09;;;;;;;39.33;24.13;;;8.30;95.00;;;;;;5073421;28;20033;-79
2022/03/29 05:44:37;;;;;;;38.60;24.40;;;8.30;95.00;;;;;;5074671;28;20400;-79
2022/03/29 05:49:47;;;;;;;41.10;24.47;;;8.20;95.00;;;;;;5073128;28;20044;-79
2022/03/29 05:52:12;;;;;;;41.97;24.80;;;8.20;94.90;;;;;;5055369;28;20033;-79
2022/03/29 05:54:39;;;;;;;37.23;23.10;;;8.20;94.90;;;;;;5055246;28;20032;-79
2022/03/29 05:57:06;;;;;;;38.77;23.73;;;8.10;94.80;;;;;;5038717;28;20327;-79
2022/03/29 05:59:32;;;;;;;38.47;22.60;;;8.10;94.80;;;;;;5073114;28;20115;-80
2022/03/29 06:02:04;;;;;;;36.73;22.93;;;8.10;94.90;;;;;;5055420;28;20551;-80
2022/03/29 06:04:31;;;;;;;39.47;23.77;;;8.20;95.00;;;;;;5073074;28;20473;-80
2022/03/29 06:06:56;;;;;;;39.33;24.17;;;8.10;95.20;;;;;;5073082;28;20024;-80
2022/03/29 06:09:22;;;;;;;40.77;23.87;;;8.20;95.10;;;;;;5073042;28;20039;-80
2022/03/29 06:11:48;;;;;;;39.13;23.80;;;8.10;95.10;;;;;;5055394;28;20040;-80
2022/03/29 06:14:14;;;;;;;38.07;23.97;;;8.10;95.10;;;;;;5074426;28;20020;-80
2022/03/29 06:16:41;;;;;;;43.27;24.50;;;8.20;95.30;;;;;;5058842;28;20032;-80
2022/03/29 06:19:08;;;;;;;37.90;22.60;;;8.20;95.40;;;;;;5058838;28;20101;-80
2022/03/29 06:21:36;;;;;;;38.50;22.80;;;8.30;95.60;;;;;;5076280;28;20444;-80
2022/03/29 06:24:04;;;;;;;38.43;23.40;;;8.20;95.30;;;;;;5059309;28;20125;-80
2022/03/29 06:26:30;;;;;;;41.10;24.60;;;8.20;95.60;;;;;;5076910;28;20064;-80
2022/03/29 06:28:56;;;;;;;37.37;22.73;;;8.30;95.70;;;;;;5041976;28;20036;-80
2022/03/29 06:31:22;;;;;;;41.93;25.40;;;8.30;95.70;;;;;;5058530;28;20066;-80
2022/03/29 06:33:48;;;;;;;41.07;24.90;;;8.20;95.80;;;;;;5058948;28;20029;-80
2022/03/29 06:36:14;;;;;;;44.57;25.13;;;8.40;96.00;;;;;;5058698;28;20032;-80
2022/03/29 06:38:39;;;;;;;40.93;24.73;;;8.40;95.80;;;;;;5076611;28;20474;-80
2022/03/29 06:41:05;;;;;;;46.40;25.60;;;8.40;95.90;;;;;;5058525;28;20040;-80
2022/03/29 06:43:34;;;;;;;46.30;25.87;;;8.40;95.90;;;;;;5042045;28;20032;-80
2022/03/29 06:46:00;;;;;;;45.17;26.50;;;8.40;95.90;;;;;;5058428;28;20083;-80
2022/03/29 06:48:26;;;;;;;46.03;26.00;;;8.40;95.90;;;;;;5076174;28;20032;-81
2022/03/29 06:50:52;;;;;;;45.23;26.90;;;8.50;95.90;;;;;;5078705;28;20040;-80
2022/03/29 06:53:17;;;;;;;43.17;25.30;;;8.40;95.70;;;;;;5078416;28;20496;-80
2022/03/29 06:55:43;;;;;;;40.37;24.67;;;8.50;95.80;;;;;;5096681;28;20388;-81
2022/03/29 06:58:09;;;;;;;41.00;24.90;;;8.50;95.90;;;;;;5078592;28;20369;-81
2022/03/29 07:00:36;;;;;;;43.13;24.60;;;8.60;95.90;;;;;;5096625;28;20158;-80
2022/03/29 07:03:02;;;;;;;38.50;23.00;;;8.60;95.90;;;;;;5096908;28;20048;-80
2022/03/29 07:05:28;;;;;;;45.07;25.40;;;8.50;96.00;;;;;;5078424;28;20043;-80
2022/03/29 07:07:53;;;;;;;43.47;24.83;;;8.60;95.90;;;;;;5078939;28;20460;-80
2022/03/29 07:13:05;;;;;;;42.70;23.97;;;8.60;95.70;;;;;;5099882;28;20129;-81
2022/03/29 07:15:31;;;;;;;38.30;24.17;;;8.70;95.70;;;;;;5081519;28;20032;-80
2022/03/29 07:17:58;;;;;;;42.03;24.07;;;8.60;95.50;;;;;;5060047;28;20052;-81
2022/03/29 07:20:24;;;;;;;38.43;23.33;;;8.60;95.50;;;;;;5077387;28;20105;-80
2022/03/29 07:22:50;;;;;;;34.00;20.47;;;8.60;95.60;;;;;;5044506;28;20017;-81
2022/03/29 07:25:20;;;;;;;32.90;19.87;;;8.70;95.60;;;;;;5024086;28;20526;-81
2022/03/29 07:27:49;;;;;;;36.07;22.43;;;8.70;95.60;;;;;;5075651;28;20044;-81
2022/03/29 07:30:16;;;;;;;34.70;20.83;;;8.70;95.70;;;;;;5077344;28;20080;-81
2022/03/29 07:32:43;;;;;;;34.03;21.47;;;8.80;95.70;;;;;;5078968;28;20092;-81
2022/03/29 07:35:10;;;;;;;36.67;22.47;;;8.80;95.50;;;;;;5079426;28;20052;-81
2022/03/29 07:37:35;;;;;;;40.70;23.33;;;8.80;95.40;;;;;;5076490;28;20037;-81
2022/03/29 07:40:01;;;;;;;39.43;23.17;;;8.90;95.40;;;;;;5057698;28;20078;-81
2022/03/29 07:42:27;;;;;;;40.80;24.70;;;8.70;95.20;;;;;;5058117;28;20511;-81
2022/03/29 07:44:53;;;;;;;37.00;22.17;;;8.70;95.10;;;;;;5075380;28;20041;-80
2022/03/29 07:47:20;;;;;;;39.20;24.77;;;8.90;95.20;;;;;;5058805;28;20040;-80
2022/03/29 07:49:46;;;;;;;35.67;21.53;;;8.80;95.00;;;;;;5080040;28;20470;-81
2022/03/29 07:52:13;;;;;;;38.87;24.00;;;8.80;94.90;;;;;;5061213;28;20040;-81
2022/03/29 07:54:39;;;;;;;37.70;22.93;;;8.80;94.70;;;;;;5075654;28;20413;-80
2022/03/29 07:57:08;;;;;;;39.80;23.13;;;8.80;94.60;;;;;;5082756;28;20032;-80
2022/03/29 07:59:35;;;;;;;42.00;25.50;;;8.70;94.60;;;;;;5076022;28;20476;-81
2022/03/29 08:02:01;;;;;;;46.43;26.20;;;8.80;94.60;;;;;;5095317;28;20024;-80
2022/03/29 08:04:26;;;;;;;40.20;24.60;;;8.80;94.50;;;;;;5077199;28;20024;-80
2022/03/29 08:06:52;;;;;;;42.83;24.67;;;8.80;94.60;;;;;;5094892;28;20473;-80
2022/03/29 08:09:18;;;;;;;41.10;23.43;;;8.80;94.90;;;;;;5095137;28;20449;-80
2022/03/29 08:11:43;;;;;;;41.73;25.20;;;8.90;94.80;;;;;;5057775;28;20118;-80
2022/03/29 08:14:09;;;;;;;40.80;23.87;;;8.90;94.50;;;;;;5041469;28;20074;-80
2022/03/29 08:16:34;;;;;;;38.40;23.67;;;8.90;94.40;;;;;;5052803;28;20025;-80
2022/03/29 08:19:00;;;;;;;43.07;25.67;;;9.00;94.40;;;;;;5084814;28;20028;-81
2022/03/29 08:24:10;;;;;;;43.70;25.52;;;9.10;94.20;;;;;;5075169;28;20044;-81
2022/03/29 08:26:36;;;;;;;42.60;25.90;;;9.10;93.80;;;;;;5039854;28;20037;-80
2022/03/29 08:29:02;;;;;;;44.47;24.70;;;9.10;93.70;;;;;;5068184;28;20480;-80
2022/03/29 08:31:27;;;;;;;44.67;25.50;;;9.20;93.70;;;;;;5061684;28;20073;-80
2022/03/29 08:33:53;;;;;;;43.37;24.77;;;9.20;93.70;;;;;;5058908;28;20032;-80
2022/03/29 08:36:19;;;;;;;38.37;22.97;;;9.30;93.70;;;;;;5076405;28;20373;-79
2022/03/29 08:38:44;;;;;;;37.80;23.37;;;9.30;93.70;;;;;;5076497;28;20032;-78
2022/03/29 08:41:10;;;;;;;44.47;25.70;;;9.40;93.60;;;;;;5076361;28;20047;-78
2022/03/29 08:43:37;;;;;;;44.00;26.33;;;9.50;93.50;;;;;;5095213;28;20495;-77
2022/03/29 08:46:02;;;;;;;46.70;25.30;;;9.60;93.50;;;;;;5094883;28;20052;-78
2022/03/29 08:48:29;;;;;;;42.70;24.87;;;9.70;93.40;;;;;;5059733;28;20496;-79
2022/03/29 08:50:59;;;;;;;40.23;24.43;;;9.80;93.50;;;;;;5063481;28;20496;-78
2022/03/29 08:53:24;;;;;;;38.87;24.47;;;9.80;93.40;;;;;;5056478;28;20020;-80
2022/03/29 08:55:51;;;;;;;37.90;23.10;;;10.00;93.00;;;;;;5039543;28;20035;-81
2022/03/29 08:58:17;;;;;;;44.10;25.50;;;10.10;92.80;;;;;;5056197;28;20028;-80
2022/03/29 09:00:48;;;;;;;41.40;25.13;;;10.20;92.60;;;;;;5056195;28;20037;-80
2022/03/29 09:03:16;;;;;;;42.90;26.00;;;10.30;92.40;;;;;;5024561;28;20028;-82
2022/03/29 09:05:42;;;;;;;43.03;26.83;;;10.40;92.20;;;;;;5078597;28;20020;-81
2022/03/29 09:08:09;;;;;;;40.97;25.77;;;10.40;92.00;;;;;;5059495;28;20024;-80
2022/03/29 09:10:51;;;;;;;40.07;26.07;;;10.60;91.90;;;;;;5094170;28;20122;-81
2022/03/29 09:13:27;;;;;;;44.00;26.50;;;10.70;91.30;;;;;;5094077;28;20499;-81
2022/03/29 09:15:55;;;;;;;43.33;27.00;;;10.70;90.90;;;;;;5094000;28;20024;-80
2022/03/29 09:18:22;;;;;;;40.43;25.20;;;10.80;90.80;;;;;;5071109;28;20131;-81
2022/03/29 09:21:15;;;;;;;44.23;25.93;;;10.90;90.90;;;;;;5073506;28;20029;-80
2022/03/29 09:23:42;;;;;;;40.28;25.33;;;11.10;90.90;;;;;;5055761;28;20020;-76
2022/03/29 09:26:26;;;;;;;46.28;26.02;;;11.30;90.80;;;;;;5090735;28;20048;-75
2022/03/29 09:28:52;;;;;;;47.97;28.20;;;11.50;90.00;;;;;;5061935;28;20107;-75
2022/03/29 09:31:23;;;;;;;41.83;26.88;;;11.50;88.00;;;;;;5056043;28;20083;-77
2022/03/29 09:33:49;;;;;;;51.33;28.70;;;11.50;87.20;;;;;;5075579;28;20094;-79
2022/03/29 09:36:20;;;;;;;47.60;26.33;;;11.50;86.50;;;;;;5093725;28;20480;-77
2022/03/29 09:38:47;;;;;;;42.28;26.17;;;11.50;86.90;;;;;;5076653;28;20028;-79
2022/03/29 09:41:26;;;;;;;36.92;24.05;;;11.60;86.80;;;;;;5073364;28;20048;-77
2022/03/29 09:44:02;;;;;;;40.63;25.10;;;11.60;86.40;;;;;;5073628;28;20016;-73
2022/03/29 09:46:28;;;;;;;41.20;24.42;;;11.60;85.80;;;;;;5073249;28;20043;-77
2022/03/29 09:49:01;;;;;;;35.85;23.55;;;11.60;85.80;;;;;;5072958;28;20078;-74
2022/03/29 09:51:28;;;;;;;39.00;23.20;;;11.70;85.50;;;;;;5073262;28;20032;-73
2022/03/29 09:53:58;;;;;;;36.67;24.80;;;11.80;85.70;;;;;;5084991;28;20024;-74
2022/03/29 09:56:28;;;;;;;34.65;21.80;;;12.00;85.60;;;;;;5093394;28;20107;-78
2022/03/29 09:59:10;;;;;;;34.85;22.40;;;12.20;85.30;;;;;;5071660;28;20554;-79
2022/03/29 10:01:52;;;;;;;38.17;22.98;;;12.40;84.70;;;;;;5073665;28;20082;-78
2022/03/29 10:04:19;;;;;;;34.92;23.08;;;12.60;84.20;;;;;;5073544;28;20024;-79
2022/03/29 10:06:48;;;;;;;35.78;23.17;;;12.80;84.10;;;;;;5073081;28;20104;-79
2022/03/29 10:09:28;;;;;;;37.78;24.52;;;13.00;83.30;;;;;;5062626;28;20051;-74
2022/03/29 10:11:58;;;;;;;34.63;23.30;;;13.30;82.90;;;;;;5089932;28;20029;-76
2022/03/29 10:14:25;;;;;;;35.10;23.33;;;13.60;81.90;;;;;;5073287;28;20090;-75
2022/03/29 10:16:56;;;;;;;32.65;21.08;;;13.90;81.20;;;;;;5072925;28;20016;-76
2022/03/29 10:19:23;;;;;;;34.95;22.80;;;14.30;79.80;;;;;;5091969;28;20032;-75
2022/03/29 10:21:50;;;;;;;34.40;21.85;;;14.60;78.80;;;;;;5092874;28;20031;-76
2022/03/29 10:24:18;;;;;;;37.80;21.30;;;14.90;77.80;;;;;;5058499;28;20016;-75
2022/03/29 10:26:45;;;;;;;35.75;22.08;;;15.10;76.70;;;;;;5092809;28;20037;-75
2022/03/29 10:29:11;;;;;;;30.00;21.13;;;15.50;76.40;;;;;;5075178;28;20476;-76
2022/03/29 10:31:41;;;;;;;30.15;20.92;;;15.90;75.60;;;;;;5048399;28;20052;-77
2022/03/29 10:34:12;;;;;;;29.73;19.70;;;16.50;74.90;;;;;;5059424;28;20016;-76
2022/03/29 10:37:16;;;;;;;28.73;20.00;;;17.10;74.10;;;;;;5093408;28;20099;-76
2022/03/29 10:39:45;;;;;;;24.95;18.35;;;17.90;72.10;;;;;;5093432;28;20020;-76
2022/03/29 10:42:24;;;;;;;25.92;18.25;;;18.50;71.90;;;;;;5074042;28;20029;-76
2022/03/29 10:45:17;;;;;;;24.77;18.77;;;19.00;68.60;;;;;;5069462;28;20124;-76
2022/03/29 10:48:03;;;;;;;25.27;18.90;;;19.50;66.10;;;;;;5056354;28;20037;-75
2022/03/29 10:50:52;;;;;;;29.52;19.83;;;20.10;63.30;;;;;;5050287;28;20507;-79
2022/03/29 10:53:32;;;;;;;22.58;16.90;;;20.70;61.50;;;;;;5068309;28;20032;-76
2022/03/29 10:56:15;;;;;;;27.27;20.73;;;21.10;60.00;;;;;;5056735;28;20031;-76
2022/03/29 10:59:02;;;;;;;26.25;20.42;;;21.40;56.60;;;;;;5074776;28;20077;-76
2022/03/29 11:01:32;;;;;;;29.48;20.98;;;21.70;55.20;;;;;;5077683;28;20089;-76
2022/03/29 11:04:04;;;;;;;25.13;19.05;;;21.90;54.90;;;;;;5062023;28;20021;-76
2022/03/29 11:06:30;;;;;;;25.55;18.75;;;22.20;54.00;;;;;;5058285;28;20055;-77
2022/03/29 11:09:05;;;;;;;20.70;15.90;;;22.50;53.60;;;;;;5063692;28;20024;-75
2022/03/29 11:11:50;;;;;;;23.52;19.35;;;22.60;52.50;;;;;;5096524;28;20032;-76
2022/03/29 11:14:33;;;;;;;22.77;18.58;;;22.70;51.50;;;;;;5096434;28;20487;-76
2022/03/29 11:17:08;;;;;;;27.47;21.03;;;22.70;50.10;;;;;;5096093;28;20027;-75
2022/03/29 11:19:48;;;;;;;24.60;20.05;;;22.90;48.90;;;;;;5095934;28;20353;-76
2022/03/29 11:22:43;;;;;;;23.88;18.92;;;22.80;49.20;;;;;;5078142;28;20360;-76
2022/03/29 11:25:13;;;;;;;22.25;18.00;;;23.10;48.00;;;;;;5077948;28;20086;-76
2022/03/29 11:27:39;;;;;;;20.42;16.02;;;23.50;47.80;;;;;;5078062;28;20426;-76
2022/03/29 11:30:07;;;;;;;24.38;19.55;;;23.80;47.60;;;;;;5096126;28;20028;-75
2022/03/29 11:32:39;;;;;;;22.30;18.58;;;24.00;46.90;;;;;;5086083;28;21526;-76
2022/03/29 11:35:11;;;;;;;22.27;17.98;;;24.20;46.70;;;;;;5068956;28;20091;-76
2022/03/29 11:37:43;;;;;;;19.20;14.52;;;24.10;46.50;;;;;;5082604;28;20032;-76
2022/03/29 11:40:12;;;;;;;16.42;13.43;;;23.90;46.20;;;;;;5075720;28;20394;-76
2022/03/29 11:42:52;;;;;;;22.33;15.77;;;23.70;46.40;;;;;;5075767;28;20017;-76
2022/03/29 11:45:20;;;;;;;19.80;15.93;;;23.60;46.50;;;;;;5094122;28;20469;-76
2022/03/29 11:47:59;;;;;;;22.15;17.75;;;23.50;46.40;;;;;;5057791;28;20083;-76
2022/03/29 11:50:37;;;;;;;19.73;16.08;;;23.40;45.90;;;;;;5058027;28;20033;-76
2022/03/29 11:53:14;;;;;;;19.40;13.52;;;23.30;46.00;;;;;;5079530;28;20032;-76
2022/03/29 11:55:40;;;;;;;23.40;16.02;;;23.30;46.40;;;;;;5077812;28;20016;-77
2022/03/29 11:58:24;;;;;;;20.42;15.57;;;23.20;46.50;;;;;;5040620;28;20035;-76
2022/03/29 12:00:50;;;;;;;20.90;15.02;;;23.10;46.20;;;;;;5073246;28;20074;-75
2022/03/29 12:03:29;;;;;;;21.05;14.30;;;23.10;46.40;;;;;;5067019;28;20024;-76
2022/03/29 12:06:06;;;;;;;15.70;11.25;;;23.10;46.10;;;;;;5063326;28;20545;-76
2022/03/29 12:08:51;;;;;;;20.25;15.70;;;23.20;46.30;;;;;;5093866;28;20031;-76
2022/03/29 12:11:19;;;;;;;22.88;17.60;;;23.20;46.10;;;;;;5057019;28;20103;-75
2022/03/29 12:13:59;;;;;;;18.25;12.63;;;23.30;46.00;;;;;;5056909;28;20030;-75
2022/03/29 12:16:26;;;;;;;21.63;13.45;;;23.40;46.00;;;;;;5074942;28;20036;-76
2022/03/29 12:18:52;;;;;;;19.83;14.98;;;23.40;46.20;;;;;;5065177;28;20490;-77
2022/03/29 12:21:21;;;;;;;21.38;16.00;;;23.50;45.90;;;;;;5065571;28;20031;-75
2022/03/29 12:23:56;;;;;;;18.80;16.05;;;23.60;45.50;;;;;;5071873;28;20364;-76
2022/03/29 12:26:23;;;;;;;22.45;17.95;;;23.70;45.20;;;;;;5073071;28;20061;-76
2022/03/29 12:28:49;;;;;;;22.83;18.30;;;23.90;44.90;;;;;;5076514;28;20051;-75
2022/03/29 12:31:16;;;;;;;22.73;19.00;;;24.00;44.20;;;;;;5056539;28;20480;-75
2022/03/29 12:33:43;;;;;;;24.95;17.90;;;24.10;43.90;;;;;;5074726;28;20028;-75
2022/03/29 12:36:15;;;;;;;22.95;18.13;;;24.20;43.70;;;;;;5075045;28;20112;-77
2022/03/29 12:38:41;;;;;;;20.30;16.08;;;24.40;43.40;;;;;;5074414;28;20039;-76
2022/03/29 12:41:08;;;;;;;27.50;18.02;;;24.60;43.20;;;;;;5056891;28;20052;-78
2022/03/29 12:43:35;;;;;;;21.90;16.85;;;24.80;42.80;;;;;;5056427;28;20028;-76
2022/03/29 12:46:09;;;;;;;20.33;17.27;;;25.00;42.50;;;;;;5073902;28;20036;-75
2022/03/29 12:48:41;;;;;;;20.75;15.98;;;25.20;42.70;;;;;;5062691;28;20031;-74
2022/03/29 12:51:08;;;;;;;16.88;12.85;;;25.30;41.80;;;;;;5075931;28;20028;-73